Time;durP1;ratioP1;P1;durP2;ratioP2;P2;SDS_P1;SDS_P2;PMS_P1;PMS_P2;Temp;Humidity;BMP_temperature;BMP_pressure;BME280_temperature;BME280_humidity;BME280_pressure;Samples;Min_cycle;Max_cycle;Signal;HPM_P1;HPM_P2
2023/10/10 00:01:05;;;;;;;5.20;3.38;;;15.80;99.90;;;;;;5105265;27;20072;-66
2023/10/10 00:03:32;;;;;;;6.95;2.88;;;15.90;99.90;;;;;;5105390;27;21760;-66
2023/10/10 00:06:06;;;;;;;6.28;3.25;;;15.80;99.90;;;;;;5107524;27;20454;-66
2023/10/10 00:08:36;;;;;;;5.05;3.33;;;15.80;99.90;;;;;;5138680;27;20055;-66
2023/10/10 00:11:14;;;;;;;5.90;3.80;;;15.80;99.90;;;;;;5105630;27;20047;-66
2023/10/10 00:13:58;;;;;;;5.32;3.10;;;15.80;99.90;;;;;;5105766;28;20032;-66
2023/10/10 00:16:26;;;;;;;6.50;3.17;;;15.80;99.90;;;;;;5103996;28;20604;-66
2023/10/10 00:19:01;;;;;;;5.85;2.95;;;15.80;99.90;;;;;;5102134;27;20119;-66
2023/10/10 00:21:28;;;;;;;5.80;3.20;;;15.80;99.90;;;;;;5104951;27;20039;-66
2023/10/10 00:23:55;;;;;;;9.00;3.92;;;15.80;99.90;;;;;;5107554;27;20047;-66
2023/10/10 00:26:25;;;;;;;6.40;3.85;;;15.80;99.90;;;;;;5103840;27;20079;-66
2023/10/10 00:28:55;;;;;;;4.90;3.28;;;15.80;99.90;;;;;;5136662;27;20044;-66
2023/10/10 00:31:26;;;;;;;6.22;3.53;;;15.80;99.90;;;;;;5104602;28;20048;-66
2023/10/10 00:33:53;;;;;;;7.72;4.07;;;15.80;99.90;;;;;;5105232;28;20051;-66
2023/10/10 00:36:23;;;;;;;6.35;3.47;;;15.80;99.90;;;;;;5140059;27;20038;-66
2023/10/10 00:39:22;;;;;;;8.38;3.67;;;15.80;99.90;;;;;;5105299;27;21002;-66
2023/10/10 00:41:50;;;;;;;7.13;3.58;;;15.80;99.90;;;;;;5099504;28;20039;-66
2023/10/10 00:44:17;;;;;;;7.43;3.88;;;15.80;99.90;;;;;;5104807;28;20035;-66
2023/10/10 00:47:04;;;;;;;5.68;3.70;;;15.80;99.90;;;;;;5105523;27;20593;-66
2023/10/10 00:49:34;;;;;;;8.05;3.63;;;15.80;99.90;;;;;;5138464;27;20092;-66
2023/10/10 00:52:02;;;;;;;5.53;3.72;;;15.80;99.90;;;;;;5105235;27;20051;-66
2023/10/10 00:54:31;;;;;;;8.70;3.80;;;15.80;99.90;;;;;;5105942;27;20044;-66
2023/10/10 00:56:59;;;;;;;6.95;3.60;;;15.80;99.90;;;;;;5104281;27;20412;-66
2023/10/10 00:59:54;;;;;;;4.50;3.50;;;15.80;99.90;;;;;;5105825;27;20404;-66
2023/10/10 01:02:20;;;;;;;8.10;4.78;;;15.80;99.90;;;;;;5104775;27;20040;-66
2023/10/10 01:07:19;;;;;;;4.57;3.38;;;15.80;99.90;;;;;;5136314;27;20048;-66
2023/10/10 01:10:19;;;;;;;8.68;3.28;;;15.80;99.90;;;;;;5106390;28;20052;-66
2023/10/10 01:12:42;;;;;;;4.63;3.33;;;15.80;99.90;;;;;;5097802;27;20059;-66
2023/10/10 01:15:16;;;;;;;6.47;3.70;;;15.80;99.90;;;;;;5103893;27;20097;-66
2023/10/10 01:17:43;;;;;;;7.50;3.90;;;15.70;99.90;;;;;;5133557;27;20043;-66
2023/10/10 01:20:24;;;;;;;6.32;2.92;;;15.80;99.90;;;;;;5104574;28;20118;-66
2023/10/10 01:22:51;;;;;;;7.05;3.40;;;15.80;99.90;;;;;;5105597;27;20619;-66
2023/10/10 01:28:02;;;;;;;6.03;2.70;;;15.80;99.90;;;;;;5100818;28;20095;-66
2023/10/10 01:30:48;;;;;;;5.03;3.38;;;15.80;99.90;;;;;;5102225;27;20071;-66
2023/10/10 01:33:15;;;;;;;4.75;2.70;;;15.80;99.90;;;;;;5104372;27;20047;-66
2023/10/10 01:35:41;;;;;;;7.97;3.47;;;15.70;99.90;;;;;;5103687;27;20070;-66
2023/10/10 01:38:44;;;;;;;5.20;2.85;;;15.80;99.90;;;;;;5100910;27;20176;-66
2023/10/10 01:41:22;;;;;;;5.78;3.17;;;15.80;99.90;;;;;;5104704;28;20397;-66
2023/10/10 01:43:53;;;;;;;6.68;3.33;;;15.80;99.90;;;;;;5101723;27;20134;-66
2023/10/10 01:46:27;;;;;;;6.13;3.58;;;15.80;99.90;;;;;;5102576;27;20260;-66
2023/10/10 01:48:54;;;;;;;5.18;3.95;;;15.80;99.90;;;;;;5104858;28;20123;-66
2023/10/10 01:51:20;;;;;;;7.15;2.80;;;15.80;99.90;;;;;;5102790;27;20043;-66
2023/10/10 01:53:48;;;;;;;5.15;2.80;;;15.80;99.90;;;;;;5100983;28;20101;-66
2023/10/10 01:56:14;;;;;;;5.00;2.40;;;15.80;99.90;;;;;;5104640;27;20039;-66
2023/10/10 01:58:41;;;;;;;5.57;2.97;;;15.80;99.90;;;;;;5131674;27;20039;-66
2023/10/10 02:01:27;;;;;;;5.22;2.72;;;15.80;99.90;;;;;;5104479;27;20404;-66
2023/10/10 02:03:53;;;;;;;6.90;2.55;;;15.80;99.90;;;;;;5103037;28;20046;-66
2023/10/10 02:06:27;;;;;;;6.28;2.72;;;15.80;99.90;;;;;;5102182;27;20052;-66
2023/10/10 02:08:56;;;;;;;4.80;3.10;;;15.80;99.90;;;;;;5104828;28;20035;-66
2023/10/10 02:11:21;;;;;;;5.90;3.03;;;15.80;99.90;;;;;;5104206;28;20436;-66
2023/10/10 02:13:53;;;;;;;5.40;2.92;;;15.80;99.90;;;;;;5103972;28;20118;-66
2023/10/10 02:16:23;;;;;;;4.00;2.60;;;15.80;99.90;;;;;;5104820;27;20049;-66
2023/10/10 02:18:51;;;;;;;4.95;2.92;;;15.80;99.90;;;;;;5104243;27;20048;-66
2023/10/10 02:21:31;;;;;;;5.47;2.90;;;15.80;99.90;;;;;;5105137;27;20115;-66
2023/10/10 02:26:44;;;;;;;5.55;2.78;;;15.70;99.90;;;;;;5135815;27;20075;-66
2023/10/10 02:32:06;;;;;;;4.53;2.28;;;15.70;99.90;;;;;;5101160;28;20413;-66
2023/10/10 02:34:34;;;;;;;9.00;3.20;;;15.70;99.90;;;;;;5136623;27;20040;-66
2023/10/10 02:40:12;;;;;;;11.23;2.75;;;15.60;99.90;;;;;;5100868;28;20494;-66
2023/10/10 02:42:37;;;;;;;4.68;3.00;;;15.70;99.90;;;;;;5099678;28;20031;-66
2023/10/10 02:45:04;;;;;;;6.72;2.97;;;15.60;99.90;;;;;;5102127;28;20131;-66
2023/10/10 02:47:30;;;;;;;6.90;2.95;;;15.60;99.90;;;;;;5099162;28;20040;-66
2023/10/10 02:50:01;;;;;;;6.60;3.30;;;15.50;99.90;;;;;;5101722;28;20031;-66
2023/10/10 02:52:28;;;;;;;6.78;3.00;;;15.50;99.90;;;;;;5107037;27;20122;-66
2023/10/10 02:54:54;;;;;;;6.07;3.03;;;15.50;99.90;;;;;;5102396;27;20031;-66
2023/10/10 02:59:59;;;;;;;6.32;2.83;;;15.50;99.90;;;;;;5104835;27;20122;-66
2023/10/10 03:02:30;;;;;;;5.82;3.35;;;15.50;99.90;;;;;;5111813;27;20138;-66
2023/10/10 03:07:29;;;;;;;6.03;2.92;;;15.40;99.90;;;;;;5108027;27;20039;-66
2023/10/10 03:13:16;;;;;;;7.18;3.42;;;15.50;99.90;;;;;;5101121;27;20075;-66
2023/10/10 03:15:50;;;;;;;4.80;2.93;;;15.40;99.90;;;;;;5101676;27;20059;-66
2023/10/10 03:18:18;;;;;;;6.47;3.20;;;15.30;99.90;;;;;;5141724;27;20043;-66
2023/10/10 03:30:53;;;;;;;4.63;2.30;;;15.20;99.90;;;;;;5103288;27;20470;-66
2023/10/10 03:36:14;;;;;;;7.72;3.22;;;15.10;99.90;;;;;;5138212;27;21826;-66
2023/10/10 05:25:22;;;;;;;22.23;13.80;;;15.40;99.90;;;;;;5105953;27;20047;-66
2023/10/10 05:27:51;;;;;;;17.08;13.60;;;15.40;99.90;;;;;;5100923;28;20104;-66
2023/10/10 05:30:25;;;;;;;17.85;14.52;;;15.40;99.90;;;;;;5135024;27;20054;-66
2023/10/10 05:33:03;;;;;;;17.10;14.25;;;15.40;99.90;;;;;;5105852;28;20077;-66
2023/10/10 05:35:34;;;;;;;18.23;14.30;;;15.30;99.90;;;;;;5105730;28;20051;-66
2023/10/10 05:38:01;;;;;;;23.50;15.70;;;15.30;99.90;;;;;;5100603;28;20414;-66
2023/10/10 05:40:27;;;;;;;19.80;14.75;;;15.20;99.90;;;;;;5102696;28;20032;-66
2023/10/10 05:42:55;;;;;;;22.02;15.45;;;15.20;99.90;;;;;;5134037;27;20043;-66
2023/10/10 05:45:20;;;;;;;18.08;14.68;;;15.30;99.90;;;;;;5103527;27;20038;-66
2023/10/10 05:47:49;;;;;;;24.10;16.40;;;15.20;99.90;;;;;;5133280;27;20032;-66
2023/10/10 05:50:16;;;;;;;19.77;14.73;;;15.20;99.90;;;;;;5104485;28;20485;-66
2023/10/10 05:52:43;;;;;;;21.63;15.73;;;15.20;99.90;;;;;;5100074;28;20042;-66
2023/10/10 05:55:12;;;;;;;17.45;14.90;;;15.20;99.90;;;;;;5133820;27;20085;-66
2023/10/10 05:57:39;;;;;;;21.60;14.85;;;15.20;99.90;;;;;;5103423;28;20122;-66
2023/10/10 06:00:10;;;;;;;21.48;14.85;;;15.10;99.90;;;;;;5103351;27;20116;-66
2023/10/10 06:02:46;;;;;;;22.27;14.02;;;15.20;99.90;;;;;;5103219;28;20573;-66
2023/10/10 06:05:16;;;;;;;20.00;13.88;;;15.10;99.90;;;;;;5134183;27;20086;-66
2023/10/10 06:07:45;;;;;;;21.27;15.25;;;15.10;99.90;;;;;;5098846;28;20036;-66
2023/10/10 06:10:18;;;;;;;17.70;14.02;;;15.20;99.90;;;;;;5100103;27;20089;-67
2023/10/10 06:12:48;;;;;;;18.75;14.40;;;15.20;99.90;;;;;;5134310;27;20039;-67
2023/10/10 06:15:18;;;;;;;16.50;14.25;;;15.20;99.90;;;;;;5099894;28;20615;-67
2023/10/10 06:17:57;;;;;;;19.77;14.93;;;15.20;99.90;;;;;;5134812;27;20039;-67
2023/10/10 06:20:23;;;;;;;20.85;15.63;;;15.20;99.90;;;;;;5100156;28;20040;-66
2023/10/10 06:22:49;;;;;;;19.00;14.90;;;15.20;99.90;;;;;;5099214;28;20044;-66
2023/10/10 06:25:18;;;;;;;20.15;14.82;;;15.20;99.90;;;;;;5101614;28;20043;-66
2023/10/10 06:27:54;;;;;;;17.42;15.15;;;15.20;99.90;;;;;;5099992;28;20116;-66
2023/10/10 06:30:20;;;;;;;21.50;16.10;;;15.30;99.90;;;;;;5107441;28;20035;-66
2023/10/10 06:32:49;;;;;;;23.98;15.27;;;15.30;99.90;;;;;;5102931;27;20035;-66
2023/10/10 06:37:43;;;;;;;17.63;14.85;;;15.30;99.90;;;;;;5138624;27;20409;-66
2023/10/10 06:40:10;;;;;;;22.20;15.73;;;15.40;99.90;;;;;;5108203;28;20062;-66
2023/10/10 06:42:36;;;;;;;23.08;15.90;;;15.40;99.90;;;;;;5105064;27;20133;-66
2023/10/10 06:45:11;;;;;;;24.48;17.08;;;15.40;99.90;;;;;;5100851;28;20059;-66
2023/10/10 06:47:43;;;;;;;25.55;17.42;;;15.50;99.90;;;;;;5100309;28;20048;-66
2023/10/10 06:50:12;;;;;;;28.00;18.42;;;15.60;99.90;;;;;;5100571;28;20040;-66
2023/10/10 06:52:38;;;;;;;32.75;20.20;;;15.60;99.90;;;;;;5102101;28;20553;-67
2023/10/10 06:55:10;;;;;;;31.40;20.73;;;15.60;99.90;;;;;;5136407;27;20084;-67
2023/10/10 06:57:40;;;;;;;32.47;21.95;;;15.70;99.90;;;;;;5099640;28;20047;-67
2023/10/10 07:02:47;;;;;;;32.45;24.23;;;15.80;99.90;;;;;;5099619;28;20118;-67
2023/10/10 07:05:15;;;;;;;30.48;22.80;;;15.80;99.90;;;;;;5084984;28;20043;-67
2023/10/10 07:07:41;;;;;;;31.92;21.30;;;15.80;99.90;;;;;;5097899;28;20043;-67
2023/10/10 07:10:09;;;;;;;26.25;21.27;;;15.80;99.90;;;;;;5100657;28;20133;-67
2023/10/10 07:12:35;;;;;;;28.00;20.15;;;15.80;99.90;;;;;;5101850;28;20036;-67
2023/10/10 07:15:06;;;;;;;26.75;20.55;;;15.90;99.90;;;;;;5104866;28;20036;-67
2023/10/10 07:17:32;;;;;;;28.58;19.50;;;15.80;99.90;;;;;;5101778;28;20148;-67
2023/10/10 07:22:34;;;;;;;23.20;18.75;;;15.90;99.90;;;;;;5101262;28;20125;-67
2023/10/10 07:25:07;;;;;;;29.52;19.48;;;15.90;99.90;;;;;;5099820;28;20132;-67
2023/10/10 07:27:36;;;;;;;33.85;20.45;;;16.00;99.90;;;;;;5136851;27;20048;-66
2023/10/10 07:30:34;;;;;;;26.98;19.90;;;16.00;99.90;;;;;;5096564;28;20130;-67
2023/10/10 07:32:55;;;;;;;27.67;21.65;;;16.00;99.90;;;;;;5100028;28;20047;-67
2023/10/10 07:35:25;;;;;;;29.95;20.95;;;16.10;99.90;;;;;;5105215;28;20141;-67
2023/10/10 07:37:52;;;;;;;29.73;23.10;;;16.20;99.90;;;;;;5132195;27;20676;-67
2023/10/10 07:40:28;;;;;;;30.05;23.73;;;16.30;99.90;;;;;;5102933;28;20492;-67
2023/10/10 07:42:58;;;;;;;30.85;24.60;;;16.30;99.90;;;;;;5135005;27;20071;-67
2023/10/10 07:46:17;;;;;;;31.73;26.27;;;16.30;99.90;;;;;;5139641;27;20078;-67
2023/10/10 07:50:49;;;;;;;32.30;26.83;;;16.40;99.90;;;;;;5138080;27;20048;-66
2023/10/10 07:53:15;;;;;;;35.67;28.83;;;16.40;99.90;;;;;;5136056;27;20043;-66
2023/10/10 07:56:00;;;;;;;39.67;30.85;;;16.50;99.90;;;;;;5134855;27;20051;-66
2023/10/10 07:58:49;;;;;;;40.65;31.70;;;16.50;99.90;;;;;;5085889;27;20031;-66
2023/10/10 08:01:18;;;;;;;45.40;33.80;;;16.50;99.90;;;;;;5137711;27;20051;-66
2023/10/10 08:03:45;;;;;;;43.13;32.42;;;16.70;99.90;;;;;;5105113;28;20039;-66
2023/10/10 08:06:16;;;;;;;41.45;32.00;;;16.50;99.90;;;;;;5105240;28;20090;-66
2023/10/10 08:08:42;;;;;;;45.95;34.20;;;16.50;99.90;;;;;;5101881;28;20040;-66
2023/10/10 08:11:14;;;;;;;43.03;33.47;;;16.50;99.90;;;;;;5106323;28;20047;-66
2023/10/10 08:13:42;;;;;;;47.90;34.55;;;16.50;99.90;;;;;;5100594;28;20032;-66
2023/10/10 08:16:07;;;;;;;48.85;34.50;;;16.50;99.90;;;;;;5134973;27;20036;-66
2023/10/10 08:21:13;;;;;;;45.60;33.40;;;16.60;99.90;;;;;;5107195;27;20086;-66
2023/10/10 08:23:42;;;;;;;45.45;33.90;;;16.60;99.90;;;;;;5103621;28;20054;-67
2023/10/10 08:26:29;;;;;;;45.10;33.20;;;16.70;99.90;;;;;;5104795;27;20032;-67
2023/10/10 08:28:55;;;;;;;51.00;35.20;;;16.70;99.90;;;;;;5106962;27;20081;-67
2023/10/10 08:31:22;;;;;;;47.58;32.70;;;16.80;99.90;;;;;;5106497;27;20062;-67
2023/10/10 08:33:49;;;;;;;45.05;32.97;;;16.90;99.90;;;;;;5103497;27;20046;-67
2023/10/10 08:36:24;;;;;;;44.92;34.55;;;16.90;99.90;;;;;;5104744;28;20044;-67
2023/10/10 08:38:57;;;;;;;44.05;33.22;;;16.90;99.90;;;;;;5135713;27;20548;-67
2023/10/10 08:41:26;;;;;;;42.78;32.75;;;17.00;99.90;;;;;;5101172;28;20127;-67
2023/10/10 08:43:53;;;;;;;46.15;33.33;;;17.10;99.90;;;;;;5105328;28;20050;-67
2023/10/10 08:46:40;;;;;;;47.08;32.75;;;17.20;99.90;;;;;;5107536;28;20040;-67
2023/10/10 08:49:07;;;;;;;47.45;35.10;;;17.30;99.90;;;;;;5104694;27;20130;-67
2023/10/10 08:51:34;;;;;;;46.28;32.03;;;17.40;99.90;;;;;;5104681;27;20796;-67
2023/10/10 08:54:10;;;;;;;40.47;30.92;;;17.50;99.90;;;;;;5090685;28;20032;-67
2023/10/10 08:56:40;;;;;;;40.88;30.17;;;17.50;99.90;;;;;;5102770;28;20098;-67
2023/10/10 08:59:11;;;;;;;40.47;31.48;;;17.50;99.90;;;;;;5102106;28;20035;-67
2023/10/10 09:01:37;;;;;;;43.00;31.65;;;17.50;99.90;;;;;;5135153;27;20120;-67
2023/10/10 09:04:03;;;;;;;43.63;31.50;;;17.50;99.90;;;;;;5103491;28;20051;-67
2023/10/10 09:06:58;;;;;;;40.10;29.88;;;17.50;99.90;;;;;;5104725;27;20100;-67
2023/10/10 09:09:33;;;;;;;37.90;30.70;;;17.50;99.90;;;;;;5103795;28;20050;-67
2023/10/10 09:12:02;;;;;;;40.22;30.00;;;17.50;99.90;;;;;;5099932;28;20047;-67
2023/10/10 09:14:42;;;;;;;40.53;30.27;;;17.50;99.90;;;;;;5107414;28;20039;-67
2023/10/10 09:17:28;;;;;;;41.17;28.98;;;17.60;99.90;;;;;;5104741;27;20044;-67
2023/10/10 09:19:57;;;;;;;37.35;29.45;;;17.70;99.90;;;;;;5103329;28;20063;-67
2023/10/10 09:22:42;;;;;;;36.70;30.20;;;17.90;99.90;;;;;;5101482;28;20051;-67
2023/10/10 09:25:23;;;;;;;;;;;18.00;99.90;;;;;;5135835;27;20054;-67
2023/10/10 09:28:17;;;;;;;36.80;28.65;;;18.10;99.90;;;;;;5102470;28;20392;-67
2023/10/10 09:30:58;;;;;;;37.08;28.48;;;18.10;99.90;;;;;;5099240;28;20159;-67
2023/10/10 09:39:25;;;;;;;40.00;28.98;;;18.30;99.90;;;;;;5050557;28;20055;-66
2023/10/10 09:42:06;;;;;;;35.20;27.77;;;18.40;99.90;;;;;;5100319;28;20043;-66
2023/10/10 09:50:33;;;;;;;38.67;26.70;;;18.60;99.90;;;;;;5073282;27;20039;-67
2023/10/10 09:53:01;;;;;;;36.10;27.10;;;18.80;99.90;;;;;;5102583;28;20054;-67
2023/10/10 09:58:08;;;;;;;33.08;26.20;;;18.90;99.90;;;;;;5134902;27;20047;-67
2023/10/10 10:09:17;;;;;;;28.85;23.52;;;19.20;99.90;;;;;;5099943;27;20048;-67
2023/10/10 10:12:04;;;;;;;30.17;23.13;;;19.30;99.90;;;;;;5100045;28;20052;-67
2023/10/10 10:14:47;;;;;;;33.10;24.55;;;19.40;99.90;;;;;;5096806;28;20092;-67
2023/10/10 10:17:47;;;;;;;27.75;22.98;;;19.40;99.90;;;;;;5133189;27;20495;-67
2023/10/10 10:20:43;;;;;;;29.23;22.15;;;19.50;99.90;;;;;;5099962;28;20036;-67
2023/10/10 10:23:25;;;;;;;28.63;21.63;;;19.60;99.90;;;;;;5099757;28;20173;-67
2023/10/10 10:26:10;;;;;;;30.05;23.42;;;19.70;99.90;;;;;;5135426;27;20048;-67
2023/10/10 10:28:37;;;;;;;27.07;20.67;;;19.80;99.90;;;;;;5098954;28;20535;-67
2023/10/10 10:31:30;;;;;;;31.02;21.88;;;19.90;99.90;;;;;;5103067;27;20501;-67
2023/10/10 10:34:23;;;;;;;26.38;20.63;;;20.00;99.90;;;;;;5102159;27;20042;-67
2023/10/10 10:36:56;;;;;;;27.73;19.80;;;20.20;99.90;;;;;;5099051;28;20115;-67
2023/10/10 10:39:34;;;;;;;25.95;19.25;;;20.30;99.90;;;;;;5099324;28;20038;-67
2023/10/10 10:42:01;;;;;;;22.75;18.83;;;20.40;99.90;;;;;;5099379;28;20043;-67
2023/10/10 10:44:58;;;;;;;21.98;18.10;;;20.70;99.90;;;;;;5102939;27;20143;-67
2023/10/10 10:47:39;;;;;;;28.50;18.55;;;20.80;99.90;;;;;;5105486;28;20100;-67
2023/10/10 10:50:29;;;;;;;24.00;18.13;;;21.00;99.90;;;;;;5101645;28;20540;-67
2023/10/10 10:53:04;;;;;;;22.75;18.42;;;21.20;99.90;;;;;;5098532;28;20036;-67
2023/10/10 10:55:30;;;;;;;24.38;17.98;;;21.30;99.90;;;;;;5137062;27;20120;-67
2023/10/10 10:58:06;;;;;;;25.27;18.63;;;21.40;99.90;;;;;;5096516;28;20463;-67
2023/10/10 11:03:37;;;;;;;23.80;19.15;;;21.40;99.90;;;;;;5131745;27;20069;-67
2023/10/10 11:06:09;;;;;;;19.38;17.30;;;21.40;99.90;;;;;;5099192;28;20040;-67
2023/10/10 11:16:56;;;;;;;22.90;19.30;;;21.30;99.90;;;;;;5138397;27;20540;-67
2023/10/10 11:21:49;;;;;;;23.17;19.20;;;21.10;99.90;;;;;;5106058;27;20557;-67
2023/10/10 11:24:23;;;;;;;21.55;17.55;;;21.00;99.90;;;;;;5137291;27;20112;-67
2023/10/10 11:29:41;;;;;;;24.07;17.97;;;21.30;99.90;;;;;;5135577;27;20091;-67
2023/10/10 11:32:07;;;;;;;20.88;16.52;;;21.50;99.90;;;;;;5137578;27;20059;-67
2023/10/10 11:34:46;;;;;;;24.02;17.00;;;21.70;99.90;;;;;;5141309;27;20046;-67
2023/10/10 11:37:14;;;;;;;18.67;15.30;;;22.00;99.90;;;;;;5135972;27;20048;-67
2023/10/10 11:39:52;;;;;;;18.98;15.95;;;22.20;99.90;;;;;;5102907;28;20193;-67
2023/10/10 11:42:27;;;;;;;22.70;16.48;;;22.20;99.90;;;;;;5103123;28;20389;-67
2023/10/10 11:45:04;;;;;;;18.30;14.30;;;22.40;99.90;;;;;;5136277;27;20047;-67
2023/10/10 11:47:31;;;;;;;13.82;11.77;;;22.50;99.90;;;;;;5103748;28;20073;-67
2023/10/10 11:50:07;;;;;;;16.92;13.13;;;22.50;99.90;;;;;;5137844;27;20048;-67
2023/10/10 11:52:56;;;;;;;15.13;13.10;;;22.50;99.90;;;;;;5102211;28;20040;-67
2023/10/10 11:55:25;;;;;;;16.20;11.98;;;22.30;99.90;;;;;;5104548;28;20028;-67
2023/10/10 11:57:58;;;;;;;15.63;11.32;;;22.20;99.90;;;;;;5103881;28;20131;-67
2023/10/10 12:00:38;;;;;;;15.73;12.13;;;22.10;99.90;;;;;;5134805;27;20039;-67
2023/10/10 12:03:05;;;;;;;19.23;11.30;;;22.00;99.90;;;;;;5103919;28;20072;-67
2023/10/10 12:08:07;;;;;;;18.23;12.85;;;22.00;99.90;;;;;;5103250;27;20047;-67
2023/10/10 12:10:47;;;;;;;16.60;12.88;;;22.00;99.90;;;;;;5097385;28;20493;-67
2023/10/10 12:16:01;;;;;;;17.60;13.82;;;22.00;99.90;;;;;;5102879;27;20367;-67
2023/10/10 12:18:32;;;;;;;19.80;14.15;;;22.00;99.90;;;;;;5105563;27;20489;-67
2023/10/10 12:21:07;;;;;;;19.40;14.10;;;22.00;99.90;;;;;;5102572;27;20126;-67
2023/10/10 12:23:32;;;;;;;19.02;14.32;;;22.10;99.90;;;;;;5104630;28;20123;-67
2023/10/10 12:26:05;;;;;;;16.88;15.10;;;22.20;99.90;;;;;;5138595;27;20047;-67
2023/10/10 12:28:30;;;;;;;16.20;14.48;;;22.40;99.90;;;;;;5101658;28;20046;-67
2023/10/10 12:30:56;;;;;;;19.50;15.18;;;22.50;99.90;;;;;;5120148;27;20043;-67
2023/10/10 12:33:25;;;;;;;18.98;14.30;;;22.60;99.90;;;;;;5102680;28;20853;-67
2023/10/10 12:35:51;;;;;;;19.42;14.05;;;22.60;99.90;;;;;;5102192;27;20534;-67
2023/10/10 12:38:21;;;;;;;16.48;13.85;;;22.60;99.90;;;;;;5136934;27;20031;-67
2023/10/10 12:40:54;;;;;;;16.50;14.25;;;22.60;99.90;;;;;;5136548;27;20489;-67
2023/10/10 12:43:24;;;;;;;17.92;13.85;;;22.60;99.90;;;;;;5104318;27;20036;-67
2023/10/10 12:45:56;;;;;;;18.42;14.20;;;22.40;99.90;;;;;;5135989;27;20148;-67
2023/10/10 12:48:22;;;;;;;25.60;13.75;;;22.20;99.90;;;;;;5101124;27;20040;-67
2023/10/10 12:50:50;;;;;;;17.70;13.75;;;22.00;99.90;;;;;;5102496;28;20067;-68
2023/10/10 12:53:18;;;;;;;17.08;13.90;;;21.90;99.90;;;;;;5101754;27;20044;-68
2023/10/10 12:55:49;;;;;;;20.02;13.65;;;21.80;99.90;;;;;;5100856;28;20414;-68
2023/10/10 12:58:22;;;;;;;19.73;14.40;;;21.60;99.90;;;;;;5105953;27;20043;-68
2023/10/10 13:00:52;;;;;;;15.60;13.98;;;21.50;99.90;;;;;;5104617;27;20066;-68
2023/10/10 13:03:30;;;;;;;17.77;14.40;;;21.40;99.90;;;;;;5101660;27;20370;-68
2023/10/10 13:06:00;;;;;;;17.50;14.27;;;21.30;99.90;;;;;;5090775;28;20513;-68
2023/10/10 13:11:44;;;;;;;15.70;13.50;;;21.20;99.90;;;;;;5063281;28;20049;-68
2023/10/10 13:14:14;;;;;;;17.38;14.80;;;21.10;99.90;;;;;;5064914;28;20037;-68
2023/10/10 13:19:11;;;;;;;19.85;15.48;;;21.00;99.90;;;;;;5134458;27;20055;-68
2023/10/10 13:21:41;;;;;;;20.05;14.48;;;21.00;99.90;;;;;;5103079;28;20559;-68
2023/10/10 13:24:11;;;;;;;19.58;15.45;;;20.90;99.90;;;;;;5102342;28;20481;-68
2023/10/10 13:26:38;;;;;;;20.90;15.27;;;20.90;99.90;;;;;;5106486;27;20403;-68
2023/10/10 13:29:07;;;;;;;23.52;15.38;;;20.80;99.90;;;;;;5101260;28;20109;-67
2023/10/10 13:31:33;;;;;;;18.90;14.48;;;20.70;99.90;;;;;;5100592;28;20051;-68
2023/10/10 13:33:59;;;;;;;25.10;15.25;;;20.80;99.90;;;;;;5135610;27;20059;-68
2023/10/10 13:36:25;;;;;;;21.17;14.30;;;20.80;99.90;;;;;;5102773;28;21204;-68
2023/10/10 13:38:59;;;;;;;15.30;13.38;;;20.80;99.90;;;;;;5134335;27;20561;-68
2023/10/10 13:41:29;;;;;;;19.38;14.93;;;20.80;99.90;;;;;;5100051;27;20047;-67
2023/10/10 13:44:02;;;;;;;18.52;15.35;;;20.90;99.90;;;;;;5100338;28;20131;-68
2023/10/10 13:46:32;;;;;;;21.92;14.27;;;20.90;99.90;;;;;;5099754;28;20054;-68
2023/10/10 13:48:58;;;;;;;19.60;15.38;;;20.90;99.90;;;;;;5101960;28;20051;-67
2023/10/10 13:51:27;;;;;;;19.08;14.70;;;21.00;99.90;;;;;;5100941;28;20375;-68
2023/10/10 13:53:56;;;;;;;17.52;14.68;;;20.90;99.90;;;;;;5098881;28;20043;-68
2023/10/10 13:56:22;;;;;;;22.90;15.45;;;21.00;99.90;;;;;;5101368;28;20077;-68
2023/10/10 13:58:48;;;;;;;18.20;15.18;;;20.90;99.90;;;;;;5100052;27;20039;-68
2023/10/10 14:01:18;;;;;;;22.45;15.68;;;20.90;99.90;;;;;;5099395;28;20462;-68
2023/10/10 14:03:48;;;;;;;17.45;14.30;;;20.90;99.90;;;;;;5101815;28;20040;-68
2023/10/10 14:06:16;;;;;;;19.95;14.68;;;20.80;99.90;;;;;;5100380;28;20126;-68
2023/10/10 14:08:44;;;;;;;19.23;14.60;;;20.70;99.90;;;;;;5101073;27;20043;-68
2023/10/10 14:11:20;;;;;;;18.05;15.68;;;20.70;99.90;;;;;;5098876;28;21402;-68
2023/10/10 14:13:48;;;;;;;20.27;15.65;;;20.70;99.90;;;;;;5132047;27;20046;-67
2023/10/10 14:16:14;;;;;;;18.77;15.45;;;20.60;99.90;;;;;;5101634;27;20078;-67
2023/10/10 14:18:43;;;;;;;22.55;15.57;;;20.60;99.90;;;;;;5100469;28;20477;-68
2023/10/10 14:21:10;;;;;;;19.25;15.05;;;20.60;99.90;;;;;;5102010;28;20036;-68
2023/10/10 14:23:40;;;;;;;16.33;14.45;;;20.50;99.90;;;;;;5101038;28;20079;-68
2023/10/10 14:26:13;;;;;;;18.33;15.00;;;20.60;99.90;;;;;;5096978;28;20595;-68
2023/10/10 14:28:52;;;;;;;19.27;15.65;;;20.60;99.90;;;;;;5131216;27;20047;-67
2023/10/10 14:31:18;;;;;;;19.55;15.48;;;20.60;99.90;;;;;;5099476;28;20040;-68
2023/10/10 14:33:43;;;;;;;19.15;15.15;;;20.60;99.90;;;;;;5099406;28;20032;-68
2023/10/10 14:36:11;;;;;;;18.20;15.07;;;20.50;99.90;;;;;;5105171;28;20039;-68
2023/10/10 14:38:38;;;;;;;17.92;13.73;;;20.60;99.90;;;;;;5134020;27;20050;-67
2023/10/10 14:41:07;;;;;;;21.08;14.60;;;20.50;99.90;;;;;;5135124;27;20063;-67
2023/10/10 14:43:33;;;;;;;19.25;14.75;;;20.60;99.90;;;;;;5132344;27;20080;-68
2023/10/10 14:45:58;;;;;;;18.35;15.75;;;20.50;99.90;;;;;;5099213;28;20089;-68
2023/10/10 14:48:24;;;;;;;18.25;14.85;;;20.50;99.90;;;;;;5100812;28;20493;-68
2023/10/10 14:50:52;;;;;;;19.15;14.32;;;20.40;99.90;;;;;;5097739;28;20043;-67
2023/10/10 14:53:24;;;;;;;18.35;14.93;;;20.40;99.90;;;;;;5098498;28;20062;-68
2023/10/10 14:55:53;;;;;;;19.20;14.00;;;20.40;99.90;;;;;;5100362;28;20130;-68
2023/10/10 14:58:21;;;;;;;23.67;14.75;;;20.40;99.90;;;;;;5129984;27;20036;-68
2023/10/10 15:00:50;;;;;;;19.85;14.65;;;20.40;99.90;;;;;;5096684;28;20039;-68
2023/10/10 15:03:16;;;;;;;17.17;14.93;;;20.40;99.90;;;;;;5114527;27;20035;-67
2023/10/10 15:05:47;;;;;;;16.83;13.35;;;20.30;99.90;;;;;;5101547;28;20126;-67
2023/10/10 15:08:13;;;;;;;18.80;14.23;;;20.30;99.90;;;;;;5098777;28;20042;-68
2023/10/10 15:10:40;;;;;;;17.48;14.05;;;20.20;99.90;;;;;;5099511;28;20050;-68
2023/10/10 15:13:11;;;;;;;17.10;12.63;;;20.20;99.90;;;;;;5097026;28;20044;-68
2023/10/10 15:15:37;;;;;;;15.77;13.13;;;20.10;99.90;;;;;;5099442;28;20047;-68
2023/10/10 15:18:03;;;;;;;15.57;12.65;;;20.20;99.90;;;;;;5107008;28;20035;-67
2023/10/10 15:20:29;;;;;;;16.48;12.73;;;20.10;99.90;;;;;;5103233;28;20106;-68
2023/10/10 15:22:55;;;;;;;15.75;11.85;;;20.10;99.90;;;;;;5100656;28;20523;-68
2023/10/10 15:25:24;;;;;;;16.23;13.40;;;20.00;99.90;;;;;;5099833;28;20592;-67
2023/10/10 15:27:53;;;;;;;14.80;11.77;;;20.10;99.90;;;;;;5100030;28;20430;-68
2023/10/10 15:30:18;;;;;;;14.32;12.68;;;20.00;99.90;;;;;;5081275;28;20101;-68
2023/10/10 15:32:47;;;;;;;15.77;12.20;;;19.90;99.90;;;;;;5100227;28;20110;-68
2023/10/10 15:35:13;;;;;;;18.00;13.00;;;19.90;99.90;;;;;;5100459;28;20071;-68
2023/10/10 15:37:42;;;;;;;19.02;12.93;;;19.90;99.90;;;;;;5099907;28;20083;-68
2023/10/10 15:40:13;;;;;;;13.90;10.88;;;19.90;99.90;;;;;;5097686;28;20504;-68
2023/10/10 15:42:39;;;;;;;15.63;11.32;;;19.90;99.90;;;;;;5102458;28;20081;-68
2023/10/10 15:45:05;;;;;;;15.35;10.40;;;19.90;99.90;;;;;;5101136;28;20040;-68
2023/10/10 15:47:31;;;;;;;14.20;10.45;;;19.80;99.90;;;;;;5098219;28;20083;-68
2023/10/10 15:50:00;;;;;;;12.95;9.98;;;19.80;99.90;;;;;;5095887;28;20466;-67
2023/10/10 15:52:27;;;;;;;14.25;9.95;;;19.80;99.90;;;;;;5101774;28;20101;-68
2023/10/10 15:54:53;;;;;;;15.10;10.48;;;19.70;99.90;;;;;;5096096;28;20036;-67
2023/10/10 15:57:22;;;;;;;12.73;10.02;;;19.70;99.90;;;;;;5133163;27;20042;-67
2023/10/10 15:59:48;;;;;;;16.88;10.43;;;19.70;99.90;;;;;;5132750;27;20044;-67
2023/10/10 16:02:14;;;;;;;15.55;9.50;;;19.60;99.90;;;;;;5100778;27;20043;-67
2023/10/10 16:04:43;;;;;;;12.23;9.23;;;19.60;99.90;;;;;;5137470;27;20048;-67
2023/10/10 16:07:10;;;;;;;11.40;9.00;;;19.50;99.90;;;;;;5101907;28;20029;-67
2023/10/10 16:09:36;;;;;;;15.77;10.05;;;19.40;99.90;;;;;;5137821;27;20132;-67
2023/10/10 16:12:07;;;;;;;13.93;10.07;;;19.50;99.90;;;;;;5101046;28;20126;-67
2023/10/10 16:14:36;;;;;;;17.38;9.55;;;19.40;99.90;;;;;;5103471;28;20044;-67
2023/10/10 16:17:02;;;;;;;13.15;9.32;;;19.40;99.90;;;;;;5104847;27;20192;-67
2023/10/10 16:19:32;;;;;;;13.73;9.57;;;19.30;99.90;;;;;;5103557;28;20473;-67